sensor_id;sensor_type;location;lat;lon;timestamp;temperature;humidity
28947;DHT22;16052;50.930;5.326;2023-01-26T00:00:07;0.60;99.90
28947;DHT22;16052;50.930;5.326;2023-01-26T00:02:33;0.60;99.90
28947;DHT22;16052;50.930;5.326;2023-01-26T00:04:59;0.60;99.90
28947;DHT22;16052;50.930;5.326;2023-01-26T00:07:27;0.50;99.90
28947;DHT22;16052;50.930;5.326;2023-01-26T00:09:53;0.30;99.90
28947;DHT22;16052;50.930;5.326;2023-01-26T00:12:19;0.50;99.90
28947;DHT22;16052;50.930;5.326;2023-01-26T00:14:44;0.50;99.90
28947;DHT22;16052;50.930;5.326;2023-01-26T00:17:19;0.70;99.90
28947;DHT22;16052;50.930;5.326;2023-01-26T00:19:51;0.80;99.90
28947;DHT22;16052;50.930;5.326;2023-01-26T00:22:17;0.90;99.90
28947;DHT22;16052;50.930;5.326;2023-01-26T00:24:43;0.80;99.90
28947;DHT22;16052;50.930;5.326;2023-01-26T00:27:08;0.90;99.90
28947;DHT22;16052;50.930;5.326;2023-01-26T00:29:35;0.90;99.90
28947;DHT22;16052;50.930;5.326;2023-01-26T00:32:01;1.10;99.90
28947;DHT22;16052;50.930;5.326;2023-01-26T00:34:27;1.00;99.90
28947;DHT22;16052;50.930;5.326;2023-01-26T00:36:53;0.80;99.90
28947;DHT22;16052;50.930;5.326;2023-01-26T00:39:18;0.40;99.90
28947;DHT22;16052;50.930;5.326;2023-01-26T00:41:44;0.30;99.90
28947;DHT22;16052;50.930;5.326;2023-01-26T00:44:28;0.40;99.90
28947;DHT22;16052;50.930;5.326;2023-01-26T00:46:53;0.90;99.90
28947;DHT22;16052;50.930;5.326;2023-01-26T00:49:19;1.00;99.90
28947;DHT22;16052;50.930;5.326;2023-01-26T00:51:45;0.60;99.90
28947;DHT22;16052;50.930;5.326;2023-01-26T00:54:10;0.70;99.90
28947;DHT22;16052;50.930;5.326;2023-01-26T00:56:36;0.90;99.90
28947;DHT22;16052;50.930;5.326;2023-01-26T00:59:02;0.70;99.90
28947;DHT22;16052;50.930;5.326;2023-01-26T01:01:28;0.70;99.90
28947;DHT22;16052;50.930;5.326;2023-01-26T01:03:55;0.90;99.90
28947;DHT22;16052;50.930;5.326;2023-01-26T01:06:20;1.00;99.90
28947;DHT22;16052;50.930;5.326;2023-01-26T01:08:46;0.70;99.90
28947;DHT22;16052;50.930;5.326;2023-01-26T01:11:11;0.70;99.90
28947;DHT22;16052;50.930;5.326;2023-01-26T01:13:38;0.80;99.90
28947;DHT22;16052;50.930;5.326;2023-01-26T01:16:05;0.90;99.90
28947;DHT22;16052;50.930;5.326;2023-01-26T01:18:31;1.00;99.90
28947;DHT22;16052;50.930;5.326;2023-01-26T01:20:57;1.00;99.90
28947;DHT22;16052;50.930;5.326;2023-01-26T01:23:22;0.70;99.90
28947;DHT22;16052;50.930;5.326;2023-01-26T01:25:56;0.80;99.90
28947;DHT22;16052;50.930;5.326;2023-01-26T01:28:22;0.80;99.90
28947;DHT22;16052;50.930;5.326;2023-01-26T01:30:47;0.50;99.90
28947;DHT22;16052;50.930;5.326;2023-01-26T01:33:13;0.50;99.90
28947;DHT22;16052;50.930;5.326;2023-01-26T01:35:38;0.50;99.90
28947;DHT22;16052;50.930;5.326;2023-01-26T01:38:04;0.40;99.90
28947;DHT22;16052;50.930;5.326;2023-01-26T01:40:30;0.40;99.90
28947;DHT22;16052;50.930;5.326;2023-01-26T01:42:55;0.60;99.90
28947;DHT22;16052;50.930;5.326;2023-01-26T01:45:41;0.60;99.90
28947;DHT22;16052;50.930;5.326;2023-01-26T01:48:14;0.60;99.90
28947;DHT22;16052;50.930;5.326;2023-01-26T01:50:42;0.80;99.90
28947;DHT22;16052;50.930;5.326;2023-01-26T01:53:13;0.70;99.90
28947;DHT22;16052;50.930;5.326;2023-01-26T01:55:41;0.40;99.90
28947;DHT22;16052;50.930;5.326;2023-01-26T01:58:07;0.40;99.90
28947;DHT22;16052;50.930;5.326;2023-01-26T02:00:33;0.50;99.90
28947;DHT22;16052;50.930;5.326;2023-01-26T02:06:09;0.30;99.90
28947;DHT22;16052;50.930;5.326;2023-01-26T02:08:39;0.30;99.90
28947;DHT22;16052;50.930;5.326;2023-01-26T02:11:16;0.50;99.90
28947;DHT22;16052;50.930;5.326;2023-01-26T02:13:45;0.70;99.90
28947;DHT22;16052;50.930;5.326;2023-01-26T02:16:11;0.90;99.90
28947;DHT22;16052;50.930;5.326;2023-01-26T02:18:37;0.70;99.90
28947;DHT22;16052;50.930;5.326;2023-01-26T02:21:05;0.90;99.90
28947;DHT22;16052;50.930;5.326;2023-01-26T02:24:03;0.90;99.90
28947;DHT22;16052;50.930;5.326;2023-01-26T02:26:34;0.80;99.90
28947;DHT22;16052;50.930;5.326;2023-01-26T02:29:02;0.80;99.90
28947;DHT22;16052;50.930;5.326;2023-01-26T02:31:28;0.80;99.90
28947;DHT22;16052;50.930;5.326;2023-01-26T02:33:54;0.90;99.90
28947;DHT22;16052;50.930;5.326;2023-01-26T02:36:24;0.90;99.90
28947;DHT22;16052;50.930;5.326;2023-01-26T02:41:53;1.00;99.90
28947;DHT22;16052;50.930;5.326;2023-01-26T02:44:38;1.10;99.90
28947;DHT22;16052;50.930;5.326;2023-01-26T02:47:13;1.10;99.90
28947;DHT22;16052;50.930;5.326;2023-01-26T02:49:40;1.20;99.90
28947;DHT22;16052;50.930;5.326;2023-01-26T02:52:13;1.30;99.90
28947;DHT22;16052;50.930;5.326;2023-01-26T02:54:38;1.20;99.90
28947;DHT22;16052;50.930;5.326;2023-01-26T02:57:23;1.00;99.90
28947;DHT22;16052;50.930;5.326;2023-01-26T02:59:48;0.80;99.90
28947;DHT22;16052;50.930;5.326;2023-01-26T03:02:14;0.80;99.90
28947;DHT22;16052;50.930;5.326;2023-01-26T03:04:41;0.90;99.90
28947;DHT22;16052;50.930;5.326;2023-01-26T03:07:07;1.00;99.90
28947;DHT22;16052;50.930;5.326;2023-01-26T03:09:33;1.10;99.90
28947;DHT22;16052;50.930;5.326;2023-01-26T03:11:59;0.90;99.90
28947;DHT22;16052;50.930;5.326;2023-01-26T03:14:24;1.20;99.90
28947;DHT22;16052;50.930;5.326;2023-01-26T03:16:50;1.40;99.90
28947;DHT22;16052;50.930;5.326;2023-01-26T03:19:15;1.30;99.90
28947;DHT22;16052;50.930;5.326;2023-01-26T03:22:00;1.30;99.90
28947;DHT22;16052;50.930;5.326;2023-01-26T03:24:44;1.30;99.90
28947;DHT22;16052;50.930;5.326;2023-01-26T03:27:30;1.10;99.90
28947;DHT22;16052;50.930;5.326;2023-01-26T03:29:58;1.00;99.90
28947;DHT22;16052;50.930;5.326;2023-01-26T03:32:24;1.10;99.90
28947;DHT22;16052;50.930;5.326;2023-01-26T03:34:50;1.00;99.90
28947;DHT22;16052;50.930;5.326;2023-01-26T03:37:16;1.30;99.90
28947;DHT22;16052;50.930;5.326;2023-01-26T03:39:48;1.60;99.90
28947;DHT22;16052;50.930;5.326;2023-01-26T03:42:33;1.50;99.90
28947;DHT22;16052;50.930;5.326;2023-01-26T03:45:17;1.40;99.90
28947;DHT22;16052;50.930;5.326;2023-01-26T03:48:09;1.20;99.90
28947;DHT22;16052;50.930;5.326;2023-01-26T03:50:53;1.00;99.90
28947;DHT22;16052;50.930;5.326;2023-01-26T03:53:38;1.20;99.90
28947;DHT22;16052;50.930;5.326;2023-01-26T03:56:22;1.20;99.90
28947;DHT22;16052;50.930;5.326;2023-01-26T03:58:53;1.30;99.90
28947;DHT22;16052;50.930;5.326;2023-01-26T04:01:21;1.40;99.90
28947;DHT22;16052;50.930;5.326;2023-01-26T04:03:51;1.40;99.90
28947;DHT22;16052;50.930;5.326;2023-01-26T04:06:37;1.40;99.90
28947;DHT22;16052;50.930;5.326;2023-01-26T04:09:21;1.30;99.90
28947;DHT22;16052;50.930;5.326;2023-01-26T04:11:47;1.40;99.90
28947;DHT22;16052;50.930;5.326;2023-01-26T04:14:13;1.60;99.90
28947;DHT22;16052;50.930;5.326;2023-01-26T04:16:59;1.70;99.90
28947;DHT22;16052;50.930;5.326;2023-01-26T04:19:43;1.50;99.90
28947;DHT22;16052;50.930;5.326;2023-01-26T04:22:28;1.70;99.90
28947;DHT22;16052;50.930;5.326;2023-01-26T04:24:53;1.70;99.90
28947;DHT22;16052;50.930;5.326;2023-01-26T04:27:19;1.80;99.90
28947;DHT22;16052;50.930;5.326;2023-01-26T04:29:45;1.80;99.90
28947;DHT22;16052;50.930;5.326;2023-01-26T04:32:10;1.70;99.90
28947;DHT22;16052;50.930;5.326;2023-01-26T04:34:36;1.70;99.90
28947;DHT22;16052;50.930;5.326;2023-01-26T04:37:02;1.70;99.90
28947;DHT22;16052;50.930;5.326;2023-01-26T04:39:27;1.70;99.90
28947;DHT22;16052;50.930;5.326;2023-01-26T04:41:53;1.70;99.90
28947;DHT22;16052;50.930;5.326;2023-01-26T04:44:19;1.60;99.90
28947;DHT22;16052;50.930;5.326;2023-01-26T04:46:46;1.60;99.90
28947;DHT22;16052;50.930;5.326;2023-01-26T04:49:13;1.50;99.90
28947;DHT22;16052;50.930;5.326;2023-01-26T04:51:39;1.50;99.90
28947;DHT22;16052;50.930;5.326;2023-01-26T04:54:04;1.30;99.90
28947;DHT22;16052;50.930;5.326;2023-01-26T04:56:32;1.10;99.90
28947;DHT22;16052;50.930;5.326;2023-01-26T04:59:02;1.30;99.90
28947;DHT22;16052;50.930;5.326;2023-01-26T05:01:28;1.30;99.90
28947;DHT22;16052;50.930;5.326;2023-01-26T05:03:54;1.30;99.90
28947;DHT22;16052;50.930;5.326;2023-01-26T05:06:20;1.30;99.90
28947;DHT22;16052;50.930;5.326;2023-01-26T05:08:45;1.00;99.90
28947;DHT22;16052;50.930;5.326;2023-01-26T05:11:11;1.00;99.90
28947;DHT22;16052;50.930;5.326;2023-01-26T05:13:37;0.90;99.90
28947;DHT22;16052;50.930;5.326;2023-01-26T05:16:04;1.30;99.90
28947;DHT22;16052;50.930;5.326;2023-01-26T05:18:30;1.20;99.90
28947;DHT22;16052;50.930;5.326;2023-01-26T05:20:56;1.30;99.90
28947;DHT22;16052;50.930;5.326;2023-01-26T05:23:22;1.40;99.90
28947;DHT22;16052;50.930;5.326;2023-01-26T05:25:48;1.40;99.90
28947;DHT22;16052;50.930;5.326;2023-01-26T05:28:14;1.50;99.90
28947;DHT22;16052;50.930;5.326;2023-01-26T05:30:41;1.50;99.90
28947;DHT22;16052;50.930;5.326;2023-01-26T05:33:09;1.50;99.90
28947;DHT22;16052;50.930;5.326;2023-01-26T05:35:35;1.40;99.90
28947;DHT22;16052;50.930;5.326;2023-01-26T05:38:01;1.60;99.90
28947;DHT22;16052;50.930;5.326;2023-01-26T05:40:26;1.50;99.90
28947;DHT22;16052;50.930;5.326;2023-01-26T05:42:52;1.40;99.90
28947;DHT22;16052;50.930;5.326;2023-01-26T05:45:19;1.40;99.90
28947;DHT22;16052;50.930;5.326;2023-01-26T05:47:46;1.30;99.90
28947;DHT22;16052;50.930;5.326;2023-01-26T05:50:13;1.50;99.90
28947;DHT22;16052;50.930;5.326;2023-01-26T05:52:39;1.60;99.90
28947;DHT22;16052;50.930;5.326;2023-01-26T05:55:05;1.30;99.90
28947;DHT22;16052;50.930;5.326;2023-01-26T05:57:31;1.30;99.90
28947;DHT22;16052;50.930;5.326;2023-01-26T05:59:57;1.30;99.90
28947;DHT22;16052;50.930;5.326;2023-01-26T06:02:23;1.40;99.90
28947;DHT22;16052;50.930;5.326;2023-01-26T06:04:51;1.40;99.90
28947;DHT22;16052;50.930;5.326;2023-01-26T06:07:17;1.50;99.90
28947;DHT22;16052;50.930;5.326;2023-01-26T06:09:43;1.50;99.90
28947;DHT22;16052;50.930;5.326;2023-01-26T06:12:17;1.40;99.90
28947;DHT22;16052;50.930;5.326;2023-01-26T06:14:44;1.60;99.90
28947;DHT22;16052;50.930;5.326;2023-01-26T06:17:12;1.60;99.90
28947;DHT22;16052;50.930;5.326;2023-01-26T06:19:38;1.80;99.90
28947;DHT22;16052;50.930;5.326;2023-01-26T06:22:07;2.00;99.90
28947;DHT22;16052;50.930;5.326;2023-01-26T06:24:33;2.00;99.90
28947;DHT22;16052;50.930;5.326;2023-01-26T06:26:59;2.10;99.90
28947;DHT22;16052;50.930;5.326;2023-01-26T06:29:25;2.00;99.90
28947;DHT22;16052;50.930;5.326;2023-01-26T06:31:50;2.00;99.90
28947;DHT22;16052;50.930;5.326;2023-01-26T06:34:16;2.00;99.90
28947;DHT22;16052;50.930;5.326;2023-01-26T06:36:42;2.00;99.90
28947;DHT22;16052;50.930;5.326;2023-01-26T06:39:09;2.00;99.90
28947;DHT22;16052;50.930;5.326;2023-01-26T06:41:35;2.10;99.90
28947;DHT22;16052;50.930;5.326;2023-01-26T06:44:01;2.10;99.90
28947;DHT22;16052;50.930;5.326;2023-01-26T06:46:27;2.10;99.90
28947;DHT22;16052;50.930;5.326;2023-01-26T06:48:52;2.00;99.90
28947;DHT22;16052;50.930;5.326;2023-01-26T06:53:54;2.30;99.90
28947;DHT22;16052;50.930;5.326;2023-01-26T06:56:21;2.40;99.90
28947;DHT22;16052;50.930;5.326;2023-01-26T06:58:47;2.50;99.90
28947;DHT22;16052;50.930;5.326;2023-01-26T07:01:18;2.50;99.90
28947;DHT22;16052;50.930;5.326;2023-01-26T07:03:44;2.30;99.90
28947;DHT22;16052;50.930;5.326;2023-01-26T07:06:10;2.30;99.90
28947;DHT22;16052;50.930;5.326;2023-01-26T07:08:36;2.20;99.90
28947;DHT22;16052;50.930;5.326;2023-01-26T07:11:01;2.10;99.90
28947;DHT22;16052;50.930;5.326;2023-01-26T07:13:27;2.10;99.90
28947;DHT22;16052;50.930;5.326;2023-01-26T07:16:19;2.10;99.90
28947;DHT22;16052;50.930;5.326;2023-01-26T07:18:45;2.20;99.90
28947;DHT22;16052;50.930;5.326;2023-01-26T07:21:13;2.20;99.90
28947;DHT22;16052;50.930;5.326;2023-01-26T07:23:39;2.10;99.90
28947;DHT22;16052;50.930;5.326;2023-01-26T07:26:05;2.20;99.90
28947;DHT22;16052;50.930;5.326;2023-01-26T07:28:30;2.40;99.90
28947;DHT22;16052;50.930;5.326;2023-01-26T07:30:59;2.20;99.90
28947;DHT22;16052;50.930;5.326;2023-01-26T07:33:27;2.10;99.90
28947;DHT22;16052;50.930;5.326;2023-01-26T07:35:53;2.20;99.90
28947;DHT22;16052;50.930;5.326;2023-01-26T07:38:19;2.40;99.90
28947;DHT22;16052;50.930;5.326;2023-01-26T07:40:44;2.60;99.90
28947;DHT22;16052;50.930;5.326;2023-01-26T07:43:10;2.70;99.90
28947;DHT22;16052;50.930;5.326;2023-01-26T07:45:35;2.70;99.90
28947;DHT22;16052;50.930;5.326;2023-01-26T07:48:02;2.70;99.90
28947;DHT22;16052;50.930;5.326;2023-01-26T07:50:29;2.50;99.90
28947;DHT22;16052;50.930;5.326;2023-01-26T07:52:55;2.40;99.90
28947;DHT22;16052;50.930;5.326;2023-01-26T07:55:21;2.30;99.90
28947;DHT22;16052;50.930;5.326;2023-01-26T07:57:50;2.40;99.90
28947;DHT22;16052;50.930;5.326;2023-01-26T08:00:17;2.30;99.90
28947;DHT22;16052;50.930;5.326;2023-01-26T08:02:43;2.40;99.90
28947;DHT22;16052;50.930;5.326;2023-01-26T08:05:08;2.50;99.90
28947;DHT22;16052;50.930;5.326;2023-01-26T08:07:34;2.40;99.90
28947;DHT22;16052;50.930;5.326;2023-01-26T08:10:00;2.40;99.90
28947;DHT22;16052;50.930;5.326;2023-01-26T08:12:27;2.40;99.90
28947;DHT22;16052;50.930;5.326;2023-01-26T08:14:53;2.40;99.90
28947;DHT22;16052;50.930;5.326;2023-01-26T08:17:18;2.30;99.90
28947;DHT22;16052;50.930;5.326;2023-01-26T08:19:45;2.30;99.90
28947;DHT22;16052;50.930;5.326;2023-01-26T08:22:11;2.40;99.90
28947;DHT22;16052;50.930;5.326;2023-01-26T08:24:36;2.40;99.90
28947;DHT22;16052;50.930;5.326;2023-01-26T08:27:02;2.10;99.90
28947;DHT22;16052;50.930;5.326;2023-01-26T08:29:28;2.00;99.90
28947;DHT22;16052;50.930;5.326;2023-01-26T08:31:53;1.90;99.90
28947;DHT22;16052;50.930;5.326;2023-01-26T08:34:19;1.90;99.90
28947;DHT22;16052;50.930;5.326;2023-01-26T08:36:47;2.10;99.90
28947;DHT22;16052;50.930;5.326;2023-01-26T08:39:12;2.10;99.90
28947;DHT22;16052;50.930;5.326;2023-01-26T08:41:38;2.10;99.90
28947;DHT22;16052;50.930;5.326;2023-01-26T08:44:05;2.30;99.90
28947;DHT22;16052;50.930;5.326;2023-01-26T08:46:31;2.40;99.90
28947;DHT22;16052;50.930;5.326;2023-01-26T08:48:57;2.50;99.90
28947;DHT22;16052;50.930;5.326;2023-01-26T08:51:23;2.50;99.90
28947;DHT22;16052;50.930;5.326;2023-01-26T08:53:48;2.60;99.90
28947;DHT22;16052;50.930;5.326;2023-01-26T08:56:14;2.80;99.90
28947;DHT22;16052;50.930;5.326;2023-01-26T08:58:40;2.80;99.90
28947;DHT22;16052;50.930;5.326;2023-01-26T09:01:09;2.80;99.90
28947;DHT22;16052;50.930;5.326;2023-01-26T09:03:35;2.70;99.90
28947;DHT22;16052;50.930;5.326;2023-01-26T09:06:05;2.80;99.90
28947;DHT22;16052;50.930;5.326;2023-01-26T09:08:31;2.80;99.90
28947;DHT22;16052;50.930;5.326;2023-01-26T09:10:57;2.70;99.90
28947;DHT22;16052;50.930;5.326;2023-01-26T09:13:23;2.70;99.90
28947;DHT22;16052;50.930;5.326;2023-01-26T09:15:49;2.80;99.90
28947;DHT22;16052;50.930;5.326;2023-01-26T09:18:15;2.90;99.90
28947;DHT22;16052;50.930;5.326;2023-01-26T09:20:41;3.00;99.90
28947;DHT22;16052;50.930;5.326;2023-01-26T09:23:07;3.00;99.90
28947;DHT22;16052;50.930;5.326;2023-01-26T09:25:35;3.10;99.90
28947;DHT22;16052;50.930;5.326;2023-01-26T09:28:02;3.10;99.90
28947;DHT22;16052;50.930;5.326;2023-01-26T09:30:28;3.00;99.90
28947;DHT22;16052;50.930;5.326;2023-01-26T09:32:58;3.10;99.90
28947;DHT22;16052;50.930;5.326;2023-01-26T09:35:24;3.10;99.90
28947;DHT22;16052;50.930;5.326;2023-01-26T09:37:50;3.10;99.90
28947;DHT22;16052;50.930;5.326;2023-01-26T09:40:29;3.20;99.90
28947;DHT22;16052;50.930;5.326;2023-01-26T09:49:14;3.20;99.90
28947;DHT22;16052;50.930;5.326;2023-01-26T09:51:51;3.00;99.90
28947;DHT22;16052;50.930;5.326;2023-01-26T09:57:04;3.40;99.90
28947;DHT22;16052;50.930;5.326;2023-01-26T09:59:47;3.40;99.90
28947;DHT22;16052;50.930;5.326;2023-01-26T10:05:16;3.20;99.90
28947;DHT22;16052;50.930;5.326;2023-01-26T10:07:45;3.10;99.90
28947;DHT22;16052;50.930;5.326;2023-01-26T10:10:24;3.10;99.90
28947;DHT22;16052;50.930;5.326;2023-01-26T10:12:51;3.10;99.90
28947;DHT22;16052;50.930;5.326;2023-01-26T10:17:46;3.30;99.90
28947;DHT22;16052;50.930;5.326;2023-01-26T10:20:26;3.30;99.90
28947;DHT22;16052;50.930;5.326;2023-01-26T10:23:03;3.50;99.90
28947;DHT22;16052;50.930;5.326;2023-01-26T10:25:38;3.50;99.90
28947;DHT22;16052;50.930;5.326;2023-01-26T10:28:25;3.60;99.90
28947;DHT22;16052;50.930;5.326;2023-01-26T10:30:51;3.50;99.90
28947;DHT22;16052;50.930;5.326;2023-01-26T10:33:25;3.50;99.90
28947;DHT22;16052;50.930;5.326;2023-01-26T10:35:52;3.50;99.90
28947;DHT22;16052;50.930;5.326;2023-01-26T10:41:04;3.60;99.90
28947;DHT22;16052;50.930;5.326;2023-01-26T10:43:34;3.60;99.90
28947;DHT22;16052;50.930;5.326;2023-01-26T10:46:02;3.80;99.90
28947;DHT22;16052;50.930;5.326;2023-01-26T10:48:28;3.90;99.90
28947;DHT22;16052;50.930;5.326;2023-01-26T10:50:54;3.90;99.90
28947;DHT22;16052;50.930;5.326;2023-01-26T10:53:27;3.90;99.90
28947;DHT22;16052;50.930;5.326;2023-01-26T10:56:11;3.80;99.90
28947;DHT22;16052;50.930;5.326;2023-01-26T11:01:07;3.70;99.90
28947;DHT22;16052;50.930;5.326;2023-01-26T11:03:37;3.60;99.90
28947;DHT22;16052;50.930;5.326;2023-01-26T11:06:14;3.60;99.90
28947;DHT22;16052;50.930;5.326;2023-01-26T11:08:40;3.60;99.90
28947;DHT22;16052;50.930;5.326;2023-01-26T11:14:15;3.90;99.90
28947;DHT22;16052;50.930;5.326;2023-01-26T11:16:52;4.00;99.90
28947;DHT22;16052;50.930;5.326;2023-01-26T11:21:58;4.00;99.90
28947;DHT22;16052;50.930;5.326;2023-01-26T11:24:41;3.90;99.90
28947;DHT22;16052;50.930;5.326;2023-01-26T11:27:27;4.10;99.90
28947;DHT22;16052;50.930;5.326;2023-01-26T11:44:15;4.20;99.90
28947;DHT22;16052;50.930;5.326;2023-01-26T11:46:56;4.30;99.90
28947;DHT22;16052;50.930;5.326;2023-01-26T11:52:33;4.10;99.90
28947;DHT22;16052;50.930;5.326;2023-01-26T11:55:23;4.00;99.90
28947;DHT22;16052;50.930;5.326;2023-01-26T11:58:16;4.10;99.90
28947;DHT22;16052;50.930;5.326;2023-01-26T12:00:51;4.00;99.90
28947;DHT22;16052;50.930;5.326;2023-01-26T12:03:29;4.20;99.90
28947;DHT22;16052;50.930;5.326;2023-01-26T12:06:01;4.10;99.90
28947;DHT22;16052;50.930;5.326;2023-01-26T12:08:35;4.00;99.90
28947;DHT22;16052;50.930;5.326;2023-01-26T12:19:09;4.30;99.90
28947;DHT22;16052;50.930;5.326;2023-01-26T12:21:37;4.20;99.90
28947;DHT22;16052;50.930;5.326;2023-01-26T12:24:19;4.20;99.90
28947;DHT22;16052;50.930;5.326;2023-01-26T12:26:49;4.20;99.90
28947;DHT22;16052;50.930;5.326;2023-01-26T12:29:27;4.50;99.90
28947;DHT22;16052;50.930;5.326;2023-01-26T12:32:04;4.30;99.90
28947;DHT22;16052;50.930;5.326;2023-01-26T12:34:33;4.40;99.90
28947;DHT22;16052;50.930;5.326;2023-01-26T12:40:14;4.30;99.90
28947;DHT22;16052;50.930;5.326;2023-01-26T12:45:31;4.40;99.90
28947;DHT22;16052;50.930;5.326;2023-01-26T12:48:18;4.20;99.90
28947;DHT22;16052;50.930;5.326;2023-01-26T12:50:53;4.00;99.90
28947;DHT22;16052;50.930;5.326;2023-01-26T12:53:27;4.10;99.90
28947;DHT22;16052;50.930;5.326;2023-01-26T12:56:41;4.10;99.90
28947;DHT22;16052;50.930;5.326;2023-01-26T12:59:00;4.00;99.90
28947;DHT22;16052;50.930;5.326;2023-01-26T13:01:39;4.10;99.90
28947;DHT22;16052;50.930;5.326;2023-01-26T13:04:09;4.00;99.90
28947;DHT22;16052;50.930;5.326;2023-01-26T13:06:36;4.00;99.90
28947;DHT22;16052;50.930;5.326;2023-01-26T13:11:55;4.20;99.90
28947;DHT22;16052;50.930;5.326;2023-01-26T13:14:29;4.40;99.90
28947;DHT22;16052;50.930;5.326;2023-01-26T13:16:55;4.40;99.90
28947;DHT22;16052;50.930;5.326;2023-01-26T13:24:56;4.20;99.90
28947;DHT22;16052;50.930;5.326;2023-01-26T13:28:11;4.40;99.90
28947;DHT22;16052;50.930;5.326;2023-01-26T13:30:44;4.40;99.90
28947;DHT22;16052;50.930;5.326;2023-01-26T13:33:22;4.20;99.90
28947;DHT22;16052;50.930;5.326;2023-01-26T13:35:50;4.40;99.90
28947;DHT22;16052;50.930;5.326;2023-01-26T13:38:27;4.70;99.90
28947;DHT22;16052;50.930;5.326;2023-01-26T13:40:55;4.70;99.90
28947;DHT22;16052;50.930;5.326;2023-01-26T13:43:32;4.60;99.90
28947;DHT22;16052;50.930;5.326;2023-01-26T13:46:07;4.60;99.90
28947;DHT22;16052;50.930;5.326;2023-01-26T13:48:42;4.60;99.90
28947;DHT22;16052;50.930;5.326;2023-01-26T13:51:28;4.60;99.90
28947;DHT22;16052;50.930;5.326;2023-01-26T13:56:34;4.60;99.90
28947;DHT22;16052;50.930;5.326;2023-01-26T13:59:11;4.40;99.90
28947;DHT22;16052;50.930;5.326;2023-01-26T14:01:45;4.40;99.90
28947;DHT22;16052;50.930;5.326;2023-01-26T14:04:19;4.50;99.90
28947;DHT22;16052;50.930;5.326;2023-01-26T14:09:16;4.70;99.90
28947;DHT22;16052;50.930;5.326;2023-01-26T14:11:43;4.70;99.90
28947;DHT22;16052;50.930;5.326;2023-01-26T14:14:24;4.90;99.90
28947;DHT22;16052;50.930;5.326;2023-01-26T14:16:50;4.90;99.90
28947;DHT22;16052;50.930;5.326;2023-01-26T14:19:20;5.00;99.90
28947;DHT22;16052;50.930;5.326;2023-01-26T14:21:54;4.90;99.90
28947;DHT22;16052;50.930;5.326;2023-01-26T14:24:32;5.00;99.90
28947;DHT22;16052;50.930;5.326;2023-01-26T14:26:58;5.00;99.90
28947;DHT22;16052;50.930;5.326;2023-01-26T14:29:25;4.90;99.90
28947;DHT22;16052;50.930;5.326;2023-01-26T14:31:53;5.00;99.90
28947;DHT22;16052;50.930;5.326;2023-01-26T14:34:29;5.10;99.90
28947;DHT22;16052;50.930;5.326;2023-01-26T14:37:16;5.00;99.90
28947;DHT22;16052;50.930;5.326;2023-01-26T14:39:42;5.10;99.90
28947;DHT22;16052;50.930;5.326;2023-01-26T14:42:17;5.10;99.90
28947;DHT22;16052;50.930;5.326;2023-01-26T14:44:43;5.20;99.90
28947;DHT22;16052;50.930;5.326;2023-01-26T14:49:51;5.10;99.90
28947;DHT22;16052;50.930;5.326;2023-01-26T14:52:24;5.00;99.90
28947;DHT22;16052;50.930;5.326;2023-01-26T14:54:52;5.00;99.90
28947;DHT22;16052;50.930;5.326;2023-01-26T14:57:21;5.00;99.90
28947;DHT22;16052;50.930;5.326;2023-01-26T14:59:50;5.10;99.90
28947;DHT22;16052;50.930;5.326;2023-01-26T15:02:17;5.30;99.90
28947;DHT22;16052;50.930;5.326;2023-01-26T15:04:55;5.30;99.90
28947;DHT22;16052;50.930;5.326;2023-01-26T15:07:37;5.50;99.90
28947;DHT22;16052;50.930;5.326;2023-01-26T15:15:38;5.20;99.90
28947;DHT22;16052;50.930;5.326;2023-01-26T15:22:57;5.50;99.90
28947;DHT22;16052;50.930;5.326;2023-01-26T15:25:25;5.50;99.90
28947;DHT22;16052;50.930;5.326;2023-01-26T15:27:58;5.40;99.90
28947;DHT22;16052;50.930;5.326;2023-01-26T15:30:33;5.20;99.90
28947;DHT22;16052;50.930;5.326;2023-01-26T15:33:01;5.40;99.90
28947;DHT22;16052;50.930;5.326;2023-01-26T15:35:32;5.40;99.90
28947;DHT22;16052;50.930;5.326;2023-01-26T15:40:28;5.60;99.90
28947;DHT22;16052;50.930;5.326;2023-01-26T15:43:16;5.60;99.90
28947;DHT22;16052;50.930;5.326;2023-01-26T15:45:49;5.60;99.90
28947;DHT22;16052;50.930;5.326;2023-01-26T15:48:16;5.90;99.90
28947;DHT22;16052;50.930;5.326;2023-01-26T15:50:42;6.10;99.90
28947;DHT22;16052;50.930;5.326;2023-01-26T15:53:16;6.20;99.90
28947;DHT22;16052;50.930;5.326;2023-01-26T15:55:44;6.20;99.90
28947;DHT22;16052;50.930;5.326;2023-01-26T15:58:10;6.20;99.90
28947;DHT22;16052;50.930;5.326;2023-01-26T16:00:36;6.30;99.90
28947;DHT22;16052;50.930;5.326;2023-01-26T16:03:06;6.00;99.90
28947;DHT22;16052;50.930;5.326;2023-01-26T16:05:35;5.70;99.90
28947;DHT22;16052;50.930;5.326;2023-01-26T16:08:02;5.50;99.90
28947;DHT22;16052;50.930;5.326;2023-01-26T16:10:27;5.50;99.90
28947;DHT22;16052;50.930;5.326;2023-01-26T16:12:53;5.50;99.90
28947;DHT22;16052;50.930;5.326;2023-01-26T16:15:36;5.60;99.90
28947;DHT22;16052;50.930;5.326;2023-01-26T16:18:04;5.60;99.90
28947;DHT22;16052;50.930;5.326;2023-01-26T16:20:31;5.60;99.90
28947;DHT22;16052;50.930;5.326;2023-01-26T16:22:56;5.60;99.90
28947;DHT22;16052;50.930;5.326;2023-01-26T16:25:28;5.60;99.90
28947;DHT22;16052;50.930;5.326;2023-01-26T16:27:54;5.60;99.90
28947;DHT22;16052;50.930;5.326;2023-01-26T16:30:21;5.50;99.90
28947;DHT22;16052;50.930;5.326;2023-01-26T16:32:47;5.50;99.90
28947;DHT22;16052;50.930;5.326;2023-01-26T16:35:16;5.40;99.90
28947;DHT22;16052;50.930;5.326;2023-01-26T16:37:42;5.50;99.90
28947;DHT22;16052;50.930;5.326;2023-01-26T16:40:10;6.00;99.90
28947;DHT22;16052;50.930;5.326;2023-01-26T16:42:40;6.30;99.90
28947;DHT22;16052;50.930;5.326;2023-01-26T16:45:14;6.30;99.90
28947;DHT22;16052;50.930;5.326;2023-01-26T16:47:40;6.10;99.90
28947;DHT22;16052;50.930;5.326;2023-01-26T16:50:08;6.00;99.90
28947;DHT22;16052;50.930;5.326;2023-01-26T16:52:34;5.80;99.90
28947;DHT22;16052;50.930;5.326;2023-01-26T16:55:01;5.70;99.90
28947;DHT22;16052;50.930;5.326;2023-01-26T16:57:27;5.60;99.90
28947;DHT22;16052;50.930;5.326;2023-01-26T16:59:53;5.70;99.90
28947;DHT22;16052;50.930;5.326;2023-01-26T17:02:23;5.80;99.90
28947;DHT22;16052;50.930;5.326;2023-01-26T17:04:50;5.70;99.90
28947;DHT22;16052;50.930;5.326;2023-01-26T17:07:16;5.70;99.90
28947;DHT22;16052;50.930;5.326;2023-01-26T17:09:42;5.70;99.90
28947;DHT22;16052;50.930;5.326;2023-01-26T17:12:10;5.70;99.90
28947;DHT22;16052;50.930;5.326;2023-01-26T17:14:36;5.60;99.90
28947;DHT22;16052;50.930;5.326;2023-01-26T17:17:02;5.60;99.90
28947;DHT22;16052;50.930;5.326;2023-01-26T17:19:28;5.60;99.90
28947;DHT22;16052;50.930;5.326;2023-01-26T17:21:54;5.80;99.90
28947;DHT22;16052;50.930;5.326;2023-01-26T17:24:19;5.70;99.90
28947;DHT22;16052;50.930;5.326;2023-01-26T17:26:45;5.70;99.90
28947;DHT22;16052;50.930;5.326;2023-01-26T17:29:11;5.60;99.90
28947;DHT22;16052;50.930;5.326;2023-01-26T17:31:37;5.50;99.90
28947;DHT22;16052;50.930;5.326;2023-01-26T17:34:03;5.70;99.90